Home > Products > Valid Products > TAF

000
FTUS43 KMKX 010534
TAFMKE
TAF
KMKE 010534Z 0106/0212 33005KT P6SM SCT009 OVC020
     FM011300 14006KT P6SM BKN020
     FM011700 15012KT P6SM SCT030 BKN250
     FM020100 16008KT P6SM SCT050 BKN080
     FM020700 16008KT 5SM -SHRA VCTS BKN045CB OVC070=



000
FTUS43 KMKX 010534
TAFMSN
TAF
KMSN 010534Z 0106/0206 12006KT P6SM SCT009 OVC016
     FM011300 14009KT P6SM BKN025
     FM011500 15011KT P6SM SCT050 BKN250
     FM020000 15006KT P6SM SCT050 BKN080
     FM020500 15005KT 5SM -SHRA VCTS BKN045CB OVC070=



000
FTUS43 KMKX 010534
TAFMSN
TAF
KMSN 010534Z 0106/0206 12006KT P6SM SCT009 OVC016
     FM011300 14009KT P6SM BKN025
     FM011500 15011KT P6SM SCT050 BKN250
     FM020000 15006KT P6SM SCT050 BKN080
     FM020500 15005KT 5SM -SHRA VCTS BKN045CB OVC070=



000
FTUS43 KMKX 010534
TAFMKE
TAF
KMKE 010534Z 0106/0212 33005KT P6SM SCT009 OVC020
     FM011300 14006KT P6SM BKN020
     FM011700 15012KT P6SM SCT030 BKN250
     FM020100 16008KT P6SM SCT050 BKN080
     FM020700 16008KT 5SM -SHRA VCTS BKN045CB OVC070=



000
FTUS43 KMKX 010423 AAE
TAFMKE
TAF AMD
KMKE 010423Z 0104/0206 01005KT P6SM SCT009 BKN018
     FM011300 14006KT P6SM BKN020
     FM011700 15012KT P6SM SCT030 BKN250
     FM020100 16008KT P6SM SCT050 BKN080=



000
FTUS43 KMKX 010423 AAE
TAFMKE
TAF AMD
KMKE 010423Z 0104/0206 01005KT P6SM SCT009 BKN018
     FM011300 14006KT P6SM BKN020
     FM011700 15012KT P6SM SCT030 BKN250
     FM020100 16008KT P6SM SCT050 BKN080=



000
FTUS43 KMKX 010331 AAD
TAFMKE
TAF AMD
KMKE 010331Z 0104/0206 01005KT P6SM -DZ BKN009 OVC014
     FM010500 04003KT P6SM BKN009 OVC015
     FM011500 15008KT P6SM BKN015
     FM011700 14011KT P6SM SCT025 BKN250
     FM020100 16009KT P6SM BKN100=



000
FTUS43 KMKX 010331 AAD
TAFMKE
TAF AMD
KMKE 010331Z 0104/0206 01005KT P6SM -DZ BKN009 OVC014
     FM010500 04003KT P6SM BKN009 OVC015
     FM011500 15008KT P6SM BKN015
     FM011700 14011KT P6SM SCT025 BKN250
     FM020100 16009KT P6SM BKN100=



000
FTUS43 KMKX 010236 AAC
TAFMKE
TAF AMD
KMKE 010236Z 0103/0206 01005KT 5SM -DZ BKN004 OVC014
     FM010500 04003KT P6SM BKN007 OVC015
     FM011500 15008KT P6SM BKN015
     FM011700 14011KT P6SM SCT025 BKN250
     FM020100 16009KT P6SM BKN100=



000
FTUS43 KMKX 010236 AAC
TAFMKE
TAF AMD
KMKE 010236Z 0103/0206 01005KT 5SM -DZ BKN004 OVC014
     FM010500 04003KT P6SM BKN007 OVC015
     FM011500 15008KT P6SM BKN015
     FM011700 14011KT P6SM SCT025 BKN250
     FM020100 16009KT P6SM BKN100=



000
FTUS43 KMKX 010042 AAA
TAFMSN
TAF AMD
KMSN 010042Z 0101/0124 14006KT P6SM SCT019 BKN250
      TEMPO 0102/0105 BKN019
     FM010500 14005KT P6SM BKN018
     FM011400 14010KT P6SM BKN025
     FM011600 15012KT P6SM SCT050 BKN250=



000
FTUS43 KMKX 010042 AAA
TAFMSN
TAF AMD
KMSN 010042Z 0101/0124 14006KT P6SM SCT019 BKN250
      TEMPO 0102/0105 BKN019
     FM010500 14005KT P6SM BKN018
     FM011400 14010KT P6SM BKN025
     FM011600 15012KT P6SM SCT050 BKN250=



000
FTUS43 KMKX 010041 AAB
TAFMKE
TAF AMD
KMKE 010041Z 0101/0206 01008KT P6SM -DZ SCT007 OVC013
      TEMPO 0101/0104 3SM -DZ BKN007 OVC013
     FM010400 04003KT P6SM OVC015
     FM011500 15008KT P6SM BKN020
     FM011700 14011KT P6SM SCT025 BKN250
     FM020100 16009KT P6SM BKN100=



000
FTUS43 KMKX 010041 AAB
TAFMKE
TAF AMD
KMKE 010041Z 0101/0206 01008KT P6SM -DZ SCT007 OVC013
      TEMPO 0101/0104 3SM -DZ BKN007 OVC013
     FM010400 04003KT P6SM OVC015
     FM011500 15008KT P6SM BKN020
     FM011700 14011KT P6SM SCT025 BKN250
     FM020100 16009KT P6SM BKN100=



000
FTUS43 KMKX 302338 AAA
TAFMKE
TAF AMD
KMKE 302338Z 0100/0206 36008KT P6SM -DZ SCT009 OVC013
      TEMPO 0100/0102 5SM -DZ BKN009 OVC013
     FM010200 04003KT P6SM OVC015
     FM011500 15008KT P6SM BKN020
     FM011700 14011KT P6SM SCT025 BKN250
     FM020100 16009KT P6SM BKN100=



000
FTUS43 KMKX 302338 AAA
TAFMKE
TAF AMD
KMKE 302338Z 0100/0206 36008KT P6SM -DZ SCT009 OVC013
      TEMPO 0100/0102 5SM -DZ BKN009 OVC013
     FM010200 04003KT P6SM OVC015
     FM011500 15008KT P6SM BKN020
     FM011700 14011KT P6SM SCT025 BKN250
     FM020100 16009KT P6SM BKN100=



000
FTUS43 KMKX 302328
TAFMSN
TAF
KMSN 302328Z 0100/0124 14004KT P6SM OVC019
     FM011400 14010KT P6SM BKN025
     FM011600 15012KT P6SM SCT050 BKN250=



000
FTUS43 KMKX 302328
TAFMKE
TAF
KMKE 302328Z 0100/0206 36008KT P6SM -DZ OVC013
     FM010200 04003KT P6SM OVC015
     FM011500 15008KT P6SM BKN020
     FM011700 14011KT P6SM SCT025 BKN250
     FM020100 16009KT P6SM BKN100=



000
FTUS43 KMKX 302328
TAFMKE
TAF
KMKE 302328Z 0100/0206 36008KT P6SM -DZ OVC013
     FM010200 04003KT P6SM OVC015
     FM011500 15008KT P6SM BKN020
     FM011700 14011KT P6SM SCT025 BKN250
     FM020100 16009KT P6SM BKN100=



000
FTUS43 KMKX 302328
TAFMSN
TAF
KMSN 302328Z 0100/0124 14004KT P6SM OVC019
     FM011400 14010KT P6SM BKN025
     FM011600 15012KT P6SM SCT050 BKN250=



000
FTUS43 KMKX 302008 AAA
TAFMSN
TAF AMD
KMSN 302008Z 3020/0118 09008KT P6SM BKN018
     FM010000 10005KT P6SM SCT020
     FM010700 13004KT P6SM BKN025
     FM011400 14010KT P6SM BKN025
     FM011600 14010KT P6SM SCT025 BKN250=



000
FTUS43 KMKX 302008 AAA
TAFMSN
TAF AMD
KMSN 302008Z 3020/0118 09008KT P6SM BKN018
     FM010000 10005KT P6SM SCT020
     FM010700 13004KT P6SM BKN025
     FM011400 14010KT P6SM BKN025
     FM011600 14010KT P6SM SCT025 BKN250=



000
FTUS43 KMKX 302008 AAA
TAFMKE
TAF AMD
KMKE 302008Z 3020/0124 02012G19KT P6SM BKN019
     FM010000 VRB03KT P6SM BKN020
     FM011400 15008KT P6SM BKN025
     FM011700 14011KT P6SM SCT025 BKN250=



000
FTUS43 KMKX 302008 AAA
TAFMKE
TAF AMD
KMKE 302008Z 3020/0124 02012G19KT P6SM BKN019
     FM010000 VRB03KT P6SM BKN020
     FM011400 15008KT P6SM BKN025
     FM011700 14011KT P6SM SCT025 BKN250=



000
FTUS43 KMKX 301735
TAFMKE
TAF
KMKE 301735Z 3018/0124 36010KT P6SM OVC017
     FM301900 03011KT P6SM BKN019
     FM010000 VRB03KT P6SM BKN020
     FM011400 15008KT P6SM BKN025
     FM011700 14011KT P6SM SCT025 BKN250=



000
FTUS43 KMKX 301735
TAFMSN
TAF
KMSN 301735Z 3018/0118 06008KT P6SM OVC014
     FM302000 09007KT P6SM SCT020
     FM010000 10005KT P6SM SCT020
     FM010700 13004KT P6SM BKN025
     FM011400 14010KT P6SM BKN025
     FM011600 14010KT P6SM SCT025 BKN250=



000
FTUS43 KMKX 301735
TAFMKE
TAF
KMKE 301735Z 3018/0124 36010KT P6SM OVC017
     FM301900 03011KT P6SM BKN019
     FM010000 VRB03KT P6SM BKN020
     FM011400 15008KT P6SM BKN025
     FM011700 14011KT P6SM SCT025 BKN250=



000
FTUS43 KMKX 301735
TAFMSN
TAF
KMSN 301735Z 3018/0118 06008KT P6SM OVC014
     FM302000 09007KT P6SM SCT020
     FM010000 10005KT P6SM SCT020
     FM010700 13004KT P6SM BKN025
     FM011400 14010KT P6SM BKN025
     FM011600 14010KT P6SM SCT025 BKN250=



000
FTUS43 KMKX 301514 AAD
TAFMKE
TAF AMD
KMKE 301514Z 3015/0118 34009KT P6SM OVC015
     FM302100 02010KT P6SM SCT015 BKN020
     FM010000 04008KT P6SM SCT035
     FM010700 11004KT P6SM SCT025
     FM011600 15008KT P6SM SCT150 BKN250=



000
FTUS43 KMKX 301514 AAD
TAFMKE
TAF AMD
KMKE 301514Z 3015/0118 34009KT P6SM OVC015
     FM302100 02010KT P6SM SCT015 BKN020
     FM010000 04008KT P6SM SCT035
     FM010700 11004KT P6SM SCT025
     FM011600 15008KT P6SM SCT150 BKN250=



000
FTUS43 KMKX 301514 AAB
TAFMSN
TAF AMD
KMSN 301514Z 3015/0112 07007KT P6SM OVC011
     FM301600 05006KT P6SM SCT011 BKN015
     FM302100 07006KT P6SM SCT025
     FM011100 14004KT P6SM SCT150 OVC200=



000
FTUS43 KMKX 301514 AAB
TAFMSN
TAF AMD
KMSN 301514Z 3015/0112 07007KT P6SM OVC011
     FM301600 05006KT P6SM SCT011 BKN015
     FM302100 07006KT P6SM SCT025
     FM011100 14004KT P6SM SCT150 OVC200=



000
FTUS43 KMKX 301136 AAA
TAFMSN
TAF AMD
KMSN 301136Z 3012/0112 04010KT P6SM OVC011
     FM301600 05006KT P6SM SCT011 BKN025
     FM301900 06006KT P6SM SCT030
     FM302000 08007KT P6SM SCT250
     FM011100 14004KT P6SM SCT150 OVC200=



000
FTUS43 KMKX 301136 AAC
TAFMKE
TAF AMD
KMKE 301136Z 3012/0118 34009KT P6SM OVC015
     FM302100 02010KT P6SM SCT015 OVC035
     FM010000 04008KT P6SM SCT035
     FM010700 11004KT P6SM SCT025
     FM011600 15008KT P6SM SCT150 BKN250=



000
FTUS43 KMKX 301136 AAA
TAFMSN
TAF AMD
KMSN 301136Z 3012/0112 04010KT P6SM OVC011
     FM301600 05006KT P6SM SCT011 BKN025
     FM301900 06006KT P6SM SCT030
     FM302000 08007KT P6SM SCT250
     FM011100 14004KT P6SM SCT150 OVC200=



000
FTUS43 KMKX 301136 AAC
TAFMKE
TAF AMD
KMKE 301136Z 3012/0118 34009KT P6SM OVC015
     FM302100 02010KT P6SM SCT015 OVC035
     FM010000 04008KT P6SM SCT035
     FM010700 11004KT P6SM SCT025
     FM011600 15008KT P6SM SCT150 BKN250=



000
FTUS43 KMKX 301057 AAB
TAFMKE
TAF AMD
KMKE 301057Z 3011/0112 34009KT P6SM SCT007 OVC014
     FM301500 01011KT P6SM BKN018
     FM301800 02011KT P6SM BKN022
     FM302200 04008KT P6SM SCT030
     FM010100 06004KT P6SM SCT022=



000
FTUS43 KMKX 301057 AAB
TAFMKE
TAF AMD
KMKE 301057Z 3011/0112 34009KT P6SM SCT007 OVC014
     FM301500 01011KT P6SM BKN018
     FM301800 02011KT P6SM BKN022
     FM302200 04008KT P6SM SCT030
     FM010100 06004KT P6SM SCT022=



000
FTUS43 KMKX 300913 AAA
TAFMKE
TAF AMD
KMKE 300913Z 3009/0112 36013KT P6SM SCT007 OVC014
     FM301500 01011KT P6SM BKN018
     FM301800 02011KT P6SM BKN022
     FM302200 04008KT P6SM SCT030
     FM010100 06004KT P6SM SCT022=



000
FTUS43 KMKX 300534
TAFMKE
TAF
KMKE 300534Z 3006/0112 01013KT P6SM SCT007 OVC014
     FM301500 01011KT P6SM BKN018
     FM301800 02011KT P6SM BKN022
     FM302200 04008KT P6SM SCT030
     FM010100 06004KT P6SM SCT022=



000
FTUS43 KMKX 300534
TAFMSN
TAF
KMSN 300534Z 3006/0106 03007KT P6SM SCT007 OVC012
     FM301500 04007KT P6SM BKN013
     FM301700 07006KT P6SM SCT020
     FM302200 04006KT P6SM SCT030
     FM010100 11004KT P6SM SCT022=



000
FTUS43 KMKX 300534
TAFMKE
TAF
KMKE 300534Z 3006/0112 01013KT P6SM SCT007 OVC014
     FM301500 01011KT P6SM BKN018
     FM301800 02011KT P6SM BKN022
     FM302200 04008KT P6SM SCT030
     FM010100 06004KT P6SM SCT022=



000
FTUS43 KMKX 300534
TAFMSN
TAF
KMSN 300534Z 3006/0106 03007KT P6SM SCT007 OVC012
     FM301500 04007KT P6SM BKN013
     FM301700 07006KT P6SM SCT020
     FM302200 04006KT P6SM SCT030
     FM010100 11004KT P6SM SCT022=



000
FTUS43 KMKX 300304 AAA
TAFMSN
TAF AMD
KMSN 300304Z 3003/3024 04010KT P6SM OVC009
     FM300500 04007KT P6SM SCT008 OVC015
     FM301500 04007KT P6SM SCT030=



000
FTUS43 KMKX 300304 AAA
TAFMSN
TAF AMD
KMSN 300304Z 3003/3024 04010KT P6SM OVC009
     FM300500 04007KT P6SM SCT008 OVC015
     FM301500 04007KT P6SM SCT030=



000
FTUS43 KMKX 300301 AAB
TAFMKE
TAF AMD
KMKE 300301Z 3003/0106 01013G19KT P6SM SCT007 OVC015
     FM300500 36012KT P6SM SCT007 OVC015
     FM301500 02010KT P6SM BKN020
     FM301800 05009KT P6SM BKN030
     FM302200 05009KT P6SM SCT035
     FM010100 08004KT P6SM SCT040=



000
FTUS43 KMKX 300301 AAB
TAFMKE
TAF AMD
KMKE 300301Z 3003/0106 01013G19KT P6SM SCT007 OVC015
     FM300500 36012KT P6SM SCT007 OVC015
     FM301500 02010KT P6SM BKN020
     FM301800 05009KT P6SM BKN030
     FM302200 05009KT P6SM SCT035
     FM010100 08004KT P6SM SCT040=



000
FTUS43 KMKX 292358 AAA
TAFMKE
TAF AMD
KMKE 292358Z 3000/0106 02014G21KT P6SM -SHRA OVC009
     FM300200 01013G21KT P6SM SCT007 OVC013
     FM300400 36012KT P6SM SCT007 OVC013
     FM301500 02010KT P6SM BKN020
     FM301800 05009KT P6SM BKN030
     FM302200 05009KT P6SM SCT035
     FM010100 08004KT P6SM SCT040=



000
FTUS43 KMKX 292358 AAA
TAFMKE
TAF AMD
KMKE 292358Z 3000/0106 02014G21KT P6SM -SHRA OVC009
     FM300200 01013G21KT P6SM SCT007 OVC013
     FM300400 36012KT P6SM SCT007 OVC013
     FM301500 02010KT P6SM BKN020
     FM301800 05009KT P6SM BKN030
     FM302200 05009KT P6SM SCT035
     FM010100 08004KT P6SM SCT040=



000
FTUS43 KMKX 292324
TAFMSN
TAF
KMSN 292324Z 3000/3024 04014KT 6SM -SHRA BKN008 OVC012
     FM300100 04010KT P6SM BKN008 OVC015
     FM300200 04008KT P6SM SCT008 OVC015
     FM300600 04005KT P6SM SCT015
     FM301500 04007KT P6SM SCT030=



000
FTUS43 KMKX 292324
TAFMKE
TAF
KMKE 292324Z 3000/0106 02014G23KT P6SM -SHRA SCT008 OVC013
     FM300200 01013G21KT P6SM SCT007 OVC013
     FM300400 36012KT P6SM SCT007 OVC013
     FM301500 02010KT P6SM BKN020
     FM301800 05009KT P6SM BKN030
     FM302200 05009KT P6SM SCT035
     FM010100 08004KT P6SM SCT040=



000
FTUS43 KMKX 292324
TAFMKE
TAF
KMKE 292324Z 3000/0106 02014G23KT P6SM -SHRA SCT008 OVC013
     FM300200 01013G21KT P6SM SCT007 OVC013
     FM300400 36012KT P6SM SCT007 OVC013
     FM301500 02010KT P6SM BKN020
     FM301800 05009KT P6SM BKN030
     FM302200 05009KT P6SM SCT035
     FM010100 08004KT P6SM SCT040=



000
FTUS43 KMKX 292324
TAFMSN
TAF
KMSN 292324Z 3000/3024 04014KT 6SM -SHRA BKN008 OVC012
     FM300100 04010KT P6SM BKN008 OVC015
     FM300200 04008KT P6SM SCT008 OVC015
     FM300600 04005KT P6SM SCT015
     FM301500 04007KT P6SM SCT030=



000
FTUS43 KMKX 292305 AAE
TAFMKE
TAF AMD
KMKE 292305Z 2923/3024 02015G24KT P6SM SCT008 OVC013
     FM300000 01013G22KT P6SM -SHRA SCT008 OVC013
     FM300200 36013G21KT P6SM OVC011
     FM301000 36012KT P6SM OVC012
     FM301600 03011KT P6SM BKN020
     FM301800 03009KT P6SM BKN030=



000
FTUS43 KMKX 292305 AAE
TAFMKE
TAF AMD
KMKE 292305Z 2923/3024 02015G24KT P6SM SCT008 OVC013
     FM300000 01013G22KT P6SM -SHRA SCT008 OVC013
     FM300200 36013G21KT P6SM OVC011
     FM301000 36012KT P6SM OVC012
     FM301600 03011KT P6SM BKN020
     FM301800 03009KT P6SM BKN030=



000
FTUS43 KMKX 292129 AAB
TAFMSN
TAF AMD
KMSN 292129Z 2921/3018 36013G20KT P6SM SCT007 SCT015 BKN100
     FM292200 35013G20KT P6SM SCT007 OVC015
     FM292300 35013G20KT 5SM -SHRA BKN007 OVC015
     FM300100 04008KT P6SM BKN015 OVC021
     FM300500 04007KT P6SM SCT020
     FM301100 04005KT P6SM SCT020=



000
FTUS43 KMKX 292129 AAB
TAFMSN
TAF AMD
KMSN 292129Z 2921/3018 36013G20KT P6SM SCT007 SCT015 BKN100
     FM292200 35013G20KT P6SM SCT007 OVC015
     FM292300 35013G20KT 5SM -SHRA BKN007 OVC015
     FM300100 04008KT P6SM BKN015 OVC021
     FM300500 04007KT P6SM SCT020
     FM301100 04005KT P6SM SCT020=



000
FTUS43 KMKX 292121 AAD
TAFMKE
TAF AMD
KMKE 292121Z 2921/3024 02015G23KT P6SM -DZ OVC007
     FM300000 01013G22KT P6SM -SHRA SCT007 OVC012
     FM300200 36013G21KT P6SM OVC011
     FM301000 36012KT P6SM OVC012
     FM301600 03011KT P6SM BKN020
     FM301800 03009KT P6SM BKN030=



000
FTUS43 KMKX 292049 AAC
TAFMKE
TAF AMD
KMKE 292049Z 2921/3024 02020G28KT 5SM -RA BR BKN003 BKN070 OVC080
     FM292300 01014G24KT P6SM -SHRA OVC015
     FM300200 36013G22KT P6SM OVC008
     FM301000 36012KT P6SM SCT008 OVC012
     FM301600 03011KT P6SM BKN020
     FM301800 03009KT P6SM BKN030=



000
FTUS43 KMKX 292049 AAC
TAFMKE
TAF AMD
KMKE 292049Z 2921/3024 02020G28KT 5SM -RA BR BKN003 BKN070 OVC080
     FM292300 01014G24KT P6SM -SHRA OVC015
     FM300200 36013G22KT P6SM OVC008
     FM301000 36012KT P6SM SCT008 OVC012
     FM301600 03011KT P6SM BKN020
     FM301800 03009KT P6SM BKN030=



000
FTUS43 KMKX 292047 AAA
TAFMSN
TAF AMD
KMSN 292047Z 2921/3018 36010KT P6SM FEW060 SCT070 OVC100
     FM292300 01009KT P6SM -SHRA OVC020
     FM300100 04008KT P6SM BKN015
     FM300500 04007KT P6SM BKN020
     FM301100 04005KT P6SM SCT020=



000
FTUS43 KMKX 292047 AAA
TAFMSN
TAF AMD
KMSN 292047Z 2921/3018 36010KT P6SM FEW060 SCT070 OVC100
     FM292300 01009KT P6SM -SHRA OVC020
     FM300100 04008KT P6SM BKN015
     FM300500 04007KT P6SM BKN020
     FM301100 04005KT P6SM SCT020=



000
FTUS43 KMKX 292045 AAB
TAFMKE
TAF AMD
KMKE 292045Z 2921/3024 02020G28KT 5SM -RA BR BKN003 BKN070 OVC080
     FM292300 01014G24KT P6SM OVC015
     FM300200 36013G22KT P6SM OVC008
     FM301000 36012KT P6SM SCT008 OVC012
     FM301600 03011KT P6SM BKN020
     FM301800 03009KT P6SM BKN030=



000
FTUS43 KMKX 292045 AAB
TAFMKE
TAF AMD
KMKE 292045Z 2921/3024 02020G28KT 5SM -RA BR BKN003 BKN070 OVC080
     FM292300 01014G24KT P6SM OVC015
     FM300200 36013G22KT P6SM OVC008
     FM301000 36012KT P6SM SCT008 OVC012
     FM301600 03011KT P6SM BKN020
     FM301800 03009KT P6SM BKN030=



000
FTUS43 KMKX 291948 AAA
TAFMKE
TAF AMD
KMKE 291948Z 2920/3024 02020G29KT 5SM -RA BR BKN003 BKN070 OVC080
     FM292100 03013G23KT P6SM BKN010 OVC035
     FM292300 02014KT P6SM OVC015
     FM301600 03011KT P6SM BKN020
     FM301800 03009KT P6SM BKN030=



000
FTUS43 KMKX 291948 AAA
TAFMKE
TAF AMD
KMKE 291948Z 2920/3024 02020G29KT 5SM -RA BR BKN003 BKN070 OVC080
     FM292100 03013G23KT P6SM BKN010 OVC035
     FM292300 02014KT P6SM OVC015
     FM301600 03011KT P6SM BKN020
     FM301800 03009KT P6SM BKN030=



000
FTUS43 KMKX 291726
TAFMSN
TAF
KMSN 291726Z 2918/3018 30007KT P6SM BKN090
     FM292100 34008KT P6SM BKN020
     FM292300 01009KT P6SM OVC020
     FM300200 04008KT P6SM BKN015
     FM300500 04007KT P6SM BKN020
     FM301100 04005KT P6SM SCT020=



000
FTUS43 KMKX 291726
TAFMKE
TAF
KMKE 291726Z 2918/3024 27007KT P6SM FEW070 SCT250
     FM291930 03014G22KT P6SM OVC090
     FM292100 03013G21KT P6SM OVC035
     FM292300 02014KT P6SM OVC015
     FM301600 03011KT P6SM BKN020
     FM301800 03009KT P6SM BKN030=



000
FTUS43 KMKX 291726
TAFMSN
TAF
KMSN 291726Z 2918/3018 30007KT P6SM BKN090
     FM292100 34008KT P6SM BKN020
     FM292300 01009KT P6SM OVC020
     FM300200 04008KT P6SM BKN015
     FM300500 04007KT P6SM BKN020
     FM301100 04005KT P6SM SCT020=



000
FTUS43 KMKX 291726
TAFMKE
TAF
KMKE 291726Z 2918/3024 27007KT P6SM FEW070 SCT250
     FM291930 03014G22KT P6SM OVC090
     FM292100 03013G21KT P6SM OVC035
     FM292300 02014KT P6SM OVC015
     FM301600 03011KT P6SM BKN020
     FM301800 03009KT P6SM BKN030=



000
FTUS43 KMKX 291339 AAA
TAFMKE
TAF AMD
KMKE 291339Z 2914/3018 27006KT P6SM FEW250
     FM292000 03012KT P6SM SCT015 BKN060
     FM300000 01014KT P6SM OVC015
     FM300900 36009KT P6SM BKN010=



000
FTUS43 KMKX 291339 AAA
TAFMKE
TAF AMD
KMKE 291339Z 2914/3018 27006KT P6SM FEW250
     FM292000 03012KT P6SM SCT015 BKN060
     FM300000 01014KT P6SM OVC015
     FM300900 36009KT P6SM BKN010=



000
FTUS43 KMKX 291223 AAA
TAFMSN
TAF AMD
KMSN 291223Z 2912/3012 00000KT 6SM BR MIFG FEW070
     FM291400 29005KT P6SM SCT070 BKN250
     FM291800 29006KT P6SM BKN090
     FM292100 34008KT P6SM VCSH BKN050
     FM292300 03010KT P6SM OVC015
     FM300700 04006KT P6SM BKN015=



000
FTUS43 KMKX 291223 AAA
TAFMSN
TAF AMD
KMSN 291223Z 2912/3012 00000KT 6SM BR MIFG FEW070
     FM291400 29005KT P6SM SCT070 BKN250
     FM291800 29006KT P6SM BKN090
     FM292100 34008KT P6SM VCSH BKN050
     FM292300 03010KT P6SM OVC015
     FM300700 04006KT P6SM BKN015=



000
FTUS43 KMKX 291120
TAFMSN
TAF
KMSN 291120Z 2912/3012 00000KT 2SM BR MIFG SKC
     FM291300 VRB03KT 5SM BR SKC
     FM291400 29005KT P6SM BKN250
     FM291800 29006KT P6SM BKN090
     FM292100 34008KT P6SM VCSH BKN050
     FM292300 03010KT P6SM OVC015
     FM300700 04006KT P6SM BKN015=



000
FTUS43 KMKX 291120
TAFMKE
TAF
KMKE 291120Z 2912/3018 27003KT 6SM BR SKC
     FM291400 28004KT P6SM FEW250
     FM292000 03012KT P6SM SCT015 BKN060
     FM300000 01014KT P6SM OVC015
     FM300900 36009KT P6SM BKN010=



000
FTUS43 KMKX 291120
TAFMSN
TAF
KMSN 291120Z 2912/3012 00000KT 2SM BR MIFG SKC
     FM291300 VRB03KT 5SM BR SKC
     FM291400 29005KT P6SM BKN250
     FM291800 29006KT P6SM BKN090
     FM292100 34008KT P6SM VCSH BKN050
     FM292300 03010KT P6SM OVC015
     FM300700 04006KT P6SM BKN015=



000
FTUS43 KMKX 291120
TAFMKE
TAF
KMKE 291120Z 2912/3018 27003KT 6SM BR SKC
     FM291400 28004KT P6SM FEW250
     FM292000 03012KT P6SM SCT015 BKN060
     FM300000 01014KT P6SM OVC015
     FM300900 36009KT P6SM BKN010=



000
FTUS43 KMKX 291000 AAA
TAFMKE
TAF AMD
KMKE 291000Z 2910/3012 00000KT 6SM BR FEW200
     FM291200 VRB03KT 4SM BR FEW250
     FM291400 32007KT P6SM SCT120 BKN200
     FM291900 02012KT P6SM VCSH SCT025 BKN040
     FM300300 03014KT P6SM BKN015 OVC025
     FM300900 35010KT P6SM FEW025 OVC035=



000
FTUS43 KMKX 291000 AAA
TAFMKE
TAF AMD
KMKE 291000Z 2910/3012 00000KT 6SM BR FEW200
     FM291200 VRB03KT 4SM BR FEW250
     FM291400 32007KT P6SM SCT120 BKN200
     FM291900 02012KT P6SM VCSH SCT025 BKN040
     FM300300 03014KT P6SM BKN015 OVC025
     FM300900 35010KT P6SM FEW025 OVC035=



000
FTUS43 KMKX 290959 AAC
TAFMSN
TAF AMD
KMSN 290959Z 2910/3006 00000KT 5SM BR SKC
      TEMPO 2910/2912 1SM BR
     FM291200 VRB03KT 2SM BR MIFG SCT250
     FM291300 VRB03KT 5SM BR SCT250
     FM291400 29005KT P6SM BKN250
     FM292000 34007KT P6SM VCSH BKN050 OVC100
     FM300000 02009KT P6SM OVC035=



000
FTUS43 KMKX 290959 AAC
TAFMSN
TAF AMD
KMSN 290959Z 2910/3006 00000KT 5SM BR SKC
      TEMPO 2910/2912 1SM BR
     FM291200 VRB03KT 2SM BR MIFG SCT250
     FM291300 VRB03KT 5SM BR SCT250
     FM291400 29005KT P6SM BKN250
     FM292000 34007KT P6SM VCSH BKN050 OVC100
     FM300000 02009KT P6SM OVC035=



000
FTUS43 KMKX 290833 AAB
TAFMSN
TAF AMD
KMSN 290833Z 2909/3006 00000KT 1/2SM FG SKC
     FM291200 VRB03KT 2SM BR MIFG SCT250
     FM291300 VRB03KT 4SM BR SCT250
     FM291400 29005KT P6SM BKN250
     FM292000 34007KT P6SM VCSH BKN050 OVC100
     FM300000 02009KT P6SM OVC035=



000
FTUS43 KMKX 290833 AAB
TAFMSN
TAF AMD
KMSN 290833Z 2909/3006 00000KT 1/2SM FG SKC
     FM291200 VRB03KT 2SM BR MIFG SCT250
     FM291300 VRB03KT 4SM BR SCT250
     FM291400 29005KT P6SM BKN250
     FM292000 34007KT P6SM VCSH BKN050 OVC100
     FM300000 02009KT P6SM OVC035=



000
FTUS43 KMKX 290635 AAA
TAFMSN
TAF AMD
KMSN 290635Z 2907/3006 00000KT 2SM BR SKC
     FM291200 VRB03KT 5SM BR SCT250
     FM291400 29005KT P6SM BKN250
     FM292000 34007KT P6SM VCSH BKN050 OVC100
     FM300000 02009KT P6SM OVC035=



000
FTUS43 KMKX 290635 AAA
TAFMSN
TAF AMD
KMSN 290635Z 2907/3006 00000KT 2SM BR SKC
     FM291200 VRB03KT 5SM BR SCT250
     FM291400 29005KT P6SM BKN250
     FM292000 34007KT P6SM VCSH BKN050 OVC100
     FM300000 02009KT P6SM OVC035=



000
FTUS43 KMKX 290520
TAFMKE
TAF
KMKE 290520Z 2906/3012 00000KT 6SM BR FEW200
     FM291000 00000KT 2SM BR FEW250
     FM291200 VRB03KT 4SM BR FEW250
     FM291400 32007KT P6SM SCT120 BKN200
     FM291900 02012KT P6SM VCSH SCT025 BKN040
     FM300300 03014KT P6SM BKN015 OVC025
     FM300900 35010KT P6SM FEW025 OVC035=



000
FTUS43 KMKX 290520
TAFMKE
TAF
KMKE 290520Z 2906/3012 00000KT 6SM BR FEW200
     FM291000 00000KT 2SM BR FEW250
     FM291200 VRB03KT 4SM BR FEW250
     FM291400 32007KT P6SM SCT120 BKN200
     FM291900 02012KT P6SM VCSH SCT025 BKN040
     FM300300 03014KT P6SM BKN015 OVC025
     FM300900 35010KT P6SM FEW025 OVC035=



000
FTUS43 KMKX 290520
TAFMSN
TAF
KMSN 290520Z 2906/3006 00000KT P6SM SKC
     FM290700 00000KT 4SM BR FEW250
     FM290900 00000KT 2SM BR SKC
     FM291200 VRB03KT 5SM BR SCT250
     FM291400 29005KT P6SM BKN250
     FM292000 34007KT P6SM VCSH BKN050 OVC100
     FM300000 02009KT P6SM OVC035=



000
FTUS43 KMKX 290520
TAFMSN
TAF
KMSN 290520Z 2906/3006 00000KT P6SM SKC
     FM290700 00000KT 4SM BR FEW250
     FM290900 00000KT 2SM BR SKC
     FM291200 VRB03KT 5SM BR SCT250
     FM291400 29005KT P6SM BKN250
     FM292000 34007KT P6SM VCSH BKN050 OVC100
     FM300000 02009KT P6SM OVC035=



000
FTUS43 KMKX 290307 AAA
TAFMKE
TAF AMD
KMKE 290307Z 2903/3006 11004KT P6SM SKC
     FM290600 00000KT 5SM BR FEW200
     FM291000 00000KT 2SM BR FEW250
     FM291200 VRB03KT 4SM BR FEW250
     FM291500 32007KT P6SM SCT120 BKN200
     FM291900 02012KT P6SM VCSH SCT025 BKN040
     FM300000 03014KT P6SM BKN015 OVC025=



000
FTUS43 KMKX 290307 AAA
TAFMKE
TAF AMD
KMKE 290307Z 2903/3006 11004KT P6SM SKC
     FM290600 00000KT 5SM BR FEW200
     FM291000 00000KT 2SM BR FEW250
     FM291200 VRB03KT 4SM BR FEW250
     FM291500 32007KT P6SM SCT120 BKN200
     FM291900 02012KT P6SM VCSH SCT025 BKN040
     FM300000 03014KT P6SM BKN015 OVC025=



000
FTUS43 KMKX 282347
TAFMSN
TAF
KMSN 282347Z 2900/2924 00000KT P6SM SKC
     FM290700 00000KT 4SM BR FEW250
     FM290900 00000KT 2SM BR SKC
     FM291200 VRB03KT P6SM SCT250
     FM292000 28007KT P6SM VCSH BKN050 OVC100=



000
FTUS43 KMKX 282347
TAFMKE
TAF
KMKE 282347Z 2900/3006 11004KT P6SM SKC
     FM290600 00000KT 5SM BR FEW200
     FM291000 00000KT 2SM BR FEW250
     FM291200 VRB03KT 4SM BR FEW250
     FM291800 32007KT P6SM SCT120 BKN200
     FM292000 02012KT P6SM VCSH BKN040
     FM300000 03014KT P6SM SCT025 OVC035=



000
FTUS43 KMKX 282347
TAFMKE
TAF
KMKE 282347Z 2900/3006 11004KT P6SM SKC
     FM290600 00000KT 5SM BR FEW200
     FM291000 00000KT 2SM BR FEW250
     FM291200 VRB03KT 4SM BR FEW250
     FM291800 32007KT P6SM SCT120 BKN200
     FM292000 02012KT P6SM VCSH BKN040
     FM300000 03014KT P6SM SCT025 OVC035=



000
FTUS43 KMKX 282347
TAFMSN
TAF
KMSN 282347Z 2900/2924 00000KT P6SM SKC
     FM290700 00000KT 4SM BR FEW250
     FM290900 00000KT 2SM BR SKC
     FM291200 VRB03KT P6SM SCT250
     FM292000 28007KT P6SM VCSH BKN050 OVC100=



000
FTUS43 KMKX 282036 AAA
TAFMKE
TAF AMD
KMKE 282036Z 2821/2924 09004KT P6SM SCT250
     FM290000 00000KT P6SM SCT250
     FM290600 00000KT 4SM BR SKC
     FM290900 00000KT 3SM BR SKC
     FM291000 00000KT 2SM BR SKC
      TEMPO 2910/2912 1SM BR
     FM291200 VRB03KT 4SM BR SCT250
     FM291400 27005KT P6SM FEW120 SCT250
     FM291800 32007KT P6SM SCT120 BKN250
     FM292200 03013KT P6SM VCSH BKN040=



000
FTUS43 KMKX 282036 AAA
TAFMKE
TAF AMD
KMKE 282036Z 2821/2924 09004KT P6SM SCT250
     FM290000 00000KT P6SM SCT250
     FM290600 00000KT 4SM BR SKC
     FM290900 00000KT 3SM BR SKC
     FM291000 00000KT 2SM BR SKC
      TEMPO 2910/2912 1SM BR
     FM291200 VRB03KT 4SM BR SCT250
     FM291400 27005KT P6SM FEW120 SCT250
     FM291800 32007KT P6SM SCT120 BKN250
     FM292200 03013KT P6SM VCSH BKN040=



000
FTUS43 KMKX 281731
TAFMSN
TAF
KMSN 281731Z 2818/2918 VRB03KT P6SM SCT250
     FM290700 00000KT 3SM BR FEW250
     FM290900 00000KT 1SM BR FEW250
     FM291200 00000KT 3SM BR SCT250
     FM291400 28004KT P6SM FEW120 SCT250=



000
FTUS43 KMKX 281731
TAFMSN
TAF
KMSN 281731Z 2818/2918 VRB03KT P6SM SCT250
     FM290700 00000KT 3SM BR FEW250
     FM290900 00000KT 1SM BR FEW250
     FM291200 00000KT 3SM BR SCT250
     FM291400 28004KT P6SM FEW120 SCT250=



000
FTUS43 KMKX 281731
TAFMKE
TAF
KMKE 281731Z 2818/2924 10006KT P6SM FEW250
     FM290000 00000KT P6SM SCT250
     FM290600 00000KT 4SM BR SKC
     FM290900 00000KT 3SM BR SKC
     FM291000 00000KT 2SM BR SKC
      TEMPO 2910/2912 1SM BR
     FM291200 VRB03KT 4SM BR SCT250
     FM291400 27005KT P6SM FEW120 SCT250
     FM291800 32007KT P6SM SCT120 BKN250
     FM292200 03013KT P6SM VCSH BKN040=



000
FTUS43 KMKX 281731
TAFMKE
TAF
KMKE 281731Z 2818/2924 10006KT P6SM FEW250
     FM290000 00000KT P6SM SCT250
     FM290600 00000KT 4SM BR SKC
     FM290900 00000KT 3SM BR SKC
     FM291000 00000KT 2SM BR SKC
      TEMPO 2910/2912 1SM BR
     FM291200 VRB03KT 4SM BR SCT250
     FM291400 27005KT P6SM FEW120 SCT250
     FM291800 32007KT P6SM SCT120 BKN250
     FM292200 03013KT P6SM VCSH BKN040=



000
FTUS43 KMKX 281403 AAB
TAFMKE
TAF AMD
KMKE 281403Z 2814/2918 00000KT 6SM HZ FEW250
     FM281500 29004KT P6SM SCT250
     FM281900 09006KT P6SM SCT200
     FM290900 00000KT 3SM BR FEW150
     FM291300 VRB03KT P6SM SCT250=



000
FTUS43 KMKX 281403 AAB
TAFMKE
TAF AMD
KMKE 281403Z 2814/2918 00000KT 6SM HZ FEW250
     FM281500 29004KT P6SM SCT250
     FM281900 09006KT P6SM SCT200
     FM290900 00000KT 3SM BR FEW150
     FM291300 VRB03KT P6SM SCT250=



000
FTUS43 KMKX 281331 AAA
TAFMKE
TAF AMD
KMKE 281331Z 2814/2918 30003KT 5SM BR FEW200
     FM281430 29004KT P6SM FEW250
     FM281900 09006KT P6SM SCT200
     FM290900 00000KT 3SM BR FEW150
     FM291300 VRB03KT P6SM SCT250=



000
FTUS43 KMKX 281331 AAA
TAFMKE
TAF AMD
KMKE 281331Z 2814/2918 30003KT 5SM BR FEW200
     FM281430 29004KT P6SM FEW250
     FM281900 09006KT P6SM SCT200
     FM290900 00000KT 3SM BR FEW150
     FM291300 VRB03KT P6SM SCT250=



000
FTUS43 KMKX 281300 AAA
TAFMSN
TAF AMD
KMSN 281300Z 2813/2912 00000KT 5SM BR FEW200
     FM281400 VRB03KT P6SM FEW200
     FM290700 00000KT 3SM BR FEW250=



000
FTUS43 KMKX 281300 AAA
TAFMSN
TAF AMD
KMSN 281300Z 2813/2912 00000KT 5SM BR FEW200
     FM281400 VRB03KT P6SM FEW200
     FM290700 00000KT 3SM BR FEW250=



000
FTUS43 KMKX 281120
TAFMKE
TAF
KMKE 281120Z 2812/2918 00000KT 5SM BR BKN250
     FM281300 VRB03KT P6SM BKN200
     FM281900 09006KT P6SM SCT200
     FM290900 00000KT 3SM BR FEW150
     FM291300 VRB03KT P6SM SCT250=



000
FTUS43 KMKX 281120
TAFMSN
TAF
KMSN 281120Z 2812/2912 00000KT 3SM BR FEW200
     FM281300 VRB03KT P6SM FEW200
     FM290700 00000KT 3SM BR FEW250=



000
FTUS43 KMKX 281120
TAFMSN
TAF
KMSN 281120Z 2812/2912 00000KT 3SM BR FEW200
     FM281300 VRB03KT P6SM FEW200
     FM290700 00000KT 3SM BR FEW250=



000
FTUS43 KMKX 281120
TAFMKE
TAF
KMKE 281120Z 2812/2918 00000KT 5SM BR BKN250
     FM281300 VRB03KT P6SM BKN200
     FM281900 09006KT P6SM SCT200
     FM290900 00000KT 3SM BR FEW150
     FM291300 VRB03KT P6SM SCT250=



000
FTUS43 KMKX 280947 AAE
TAFMKE
TAF AMD
KMKE 280947Z 2810/2912 00000KT 5SM BR SCT001 BKN250
      TEMPO 2810/2812 2SM BR MIFG
     FM281300 00000KT 6SM BR BKN250
     FM281400 VRB03KT P6SM BKN250
     FM281800 07006KT P6SM BKN250
     FM282100 11006KT P6SM SCT250
     FM290300 00000KT 5SM BR SKC=



000
FTUS43 KMKX 280947 AAE
TAFMKE
TAF AMD
KMKE 280947Z 2810/2912 00000KT 5SM BR SCT001 BKN250
      TEMPO 2810/2812 2SM BR MIFG
     FM281300 00000KT 6SM BR BKN250
     FM281400 VRB03KT P6SM BKN250
     FM281800 07006KT P6SM BKN250
     FM282100 11006KT P6SM SCT250
     FM290300 00000KT 5SM BR SKC=



000
FTUS43 KMKX 280837 AAD
TAFMKE
TAF AMD
KMKE 280837Z 2809/2912 00000KT 3SM BR SCT001 BKN250
      TEMPO 2809/2811 3/4SM BR
     FM281300 00000KT 5SM BR SCT250
     FM281400 VRB03KT P6SM SCT250
     FM281800 07006KT P6SM BKN250
     FM282100 11006KT P6SM SCT250
     FM290300 00000KT 5SM BR SKC=



000
FTUS43 KMKX 280837 AAD
TAFMKE
TAF AMD
KMKE 280837Z 2809/2912 00000KT 3SM BR SCT001 BKN250
      TEMPO 2809/2811 3/4SM BR
     FM281300 00000KT 5SM BR SCT250
     FM281400 VRB03KT P6SM SCT250
     FM281800 07006KT P6SM BKN250
     FM282100 11006KT P6SM SCT250
     FM290300 00000KT 5SM BR SKC=



000
FTUS43 KMKX 280835 AAA
TAFMSN
TAF AMD
KMSN 280835Z 2809/2906 00000KT 2SM BR SCT250
     FM281300 00000KT 5SM BR BKN250
     FM281400 10004KT P6SM BKN200
     FM290000 VRB02KT P6SM SCT250=



000
FTUS43 KMKX 280835 AAA
TAFMSN
TAF AMD
KMSN 280835Z 2809/2906 00000KT 2SM BR SCT250
     FM281300 00000KT 5SM BR BKN250
     FM281400 10004KT P6SM BKN200
     FM290000 VRB02KT P6SM SCT250=



000
FTUS43 KMKX 280820 AAC
TAFMKE
TAF AMD
KMKE 280820Z 2808/2912 00000KT 3SM BR SCT001 BKN250
      TEMPO 2808/2811 3/4SM BR
     FM281200 00000KT 2SM BR SCT250
     FM281300 00000KT 3SM BR SCT250
     FM281400 VRB03KT P6SM SCT250
     FM281800 07006KT P6SM BKN250
     FM282100 11006KT P6SM SCT250
     FM290300 00000KT 5SM BR SKC=



000
FTUS43 KMKX 280820 AAC
TAFMKE
TAF AMD
KMKE 280820Z 2808/2912 00000KT 3SM BR SCT001 BKN250
      TEMPO 2808/2811 3/4SM BR
     FM281200 00000KT 2SM BR SCT250
     FM281300 00000KT 3SM BR SCT250
     FM281400 VRB03KT P6SM SCT250
     FM281800 07006KT P6SM BKN250
     FM282100 11006KT P6SM SCT250
     FM290300 00000KT 5SM BR SKC=



000
FTUS43 KMKX 280758 AAB
TAFMKE
TAF AMD
KMKE 280758Z 2808/2912 00000KT 1 1/2SM BR SCT001 BKN250
      TEMPO 2808/2811 1/4SM FG BKN001
     FM281200 00000KT 1SM BR SCT250
     FM281300 00000KT 3SM BR SCT250
     FM281400 VRB03KT P6SM SCT250
     FM281800 07006KT P6SM BKN250
     FM282100 11006KT P6SM SCT250
     FM290300 00000KT 5SM BR SKC=



000
FTUS43 KMKX 280615 AAA
TAFMKE
TAF AMD
KMKE 280615Z 2806/2912 00000KT 1 1/2SM BR SCT001 BKN250
      TEMPO 2806/2808 3/4SM BR BKN001
     FM280800 00000KT 1SM BR SCT250
     FM281300 00000KT 3SM BR SCT250
     FM281400 VRB03KT P6SM SCT250
     FM281800 07006KT P6SM BKN250
     FM282100 11006KT P6SM SCT250
     FM290300 00000KT 5SM BR SKC=



    US Dept of Commerce
    National Oceanic and Atmospheric Administration
    National Weather Service
    1325 East West Highway
    Silver Spring, MD 20910
    Page Author: NWS Internet Services Team
Disclaimer
Information Quality
Credits
Glossary
Privacy Policy
Freedom of Information Act (FOIA)
About Us
Career Opportunities